Flight Track Log - Related Links

Times and Time Zones

All times are in EDT time to prevent confusion due to time zone crossing. See the CTL14 flight status page for this flight to view local times or setup timezone preferences in your user account.

Time Position Orientation Groundspeed Altitude Reporting Facility
EDT Latitude Longitude Course Direction KTS MPH feet Rate Location/Type
Wed 12:27:12 AM 42.1667 -87.8833 37° Northeast 118 136 3,000  Level Chicago TRACON
Wed 12:28:06 AM 42.1667 -87.8333 90° East 128 147 3,900 526 Climbing Chicago TRACON
Wed 12:29:06 AM 42.1667 -87.7833 90° East 156 180 4,000 50 Climbing Chicago TRACON
Wed 12:30:06 AM 42.1667 -87.7167 90° East 171 197 4,000 378 Level Chicago TRACON
Wed 12:31:13 AM 42.1678 -87.6517 89° East 161 185 4,800 614 Climbing Chicago Center
Wed 12:32:13 AM 42.1722 -87.5931 84° East 160 184 5,300 496 Climbing Chicago Center
Wed 12:33:14 AM 42.1731 -87.5331 89° East 160 184 5,800 347 Climbing Chicago Center
Wed 12:34:14 AM 42.1744 -87.4708 88° East 166 191 6,000 99 Climbing Chicago Center
Wed 12:35:15 AM 42.1514 -87.4108 117° Southeast 179 206 6,000  Level Chicago Center
Wed 12:36:15 AM 42.1219 -87.3561 126° Southeast 178 205 6,000  Level Chicago Center
Wed 12:37:16 AM 42.0983 -87.2947 117° Southeast 181 208 6,000  Level Chicago Center
Wed 12:38:16 AM 42.0728 -87.2372 121° Southeast 181 208 6,000  Level Chicago Center
Wed 12:39:17 AM 42.0447 -87.1781 123° Southeast 183 211 6,000  Level Chicago Center
Wed 12:40:17 AM 42.0181 -87.1186 121° Southeast 185 213 6,000  Level Chicago Center
Wed 12:41:18 AM 41.9922 -87.0594 120° Southeast 183 211 6,000 -50 Level Chicago Center
Wed 12:42:18 AM 41.9656 -87.0017 122° Southeast 183 211 5,900  Descending Chicago Center
Wed 12:43:19 AM 41.9372 -86.9458 124° Southeast 181 208 6,000 50 Climbing Chicago Center
Wed 12:44:19 AM 41.9086 -86.8886 124° Southeast 182 209 6,000  Level Chicago Center
Wed 12:45:19 AM 41.8792 -86.8306 124° Southeast 186 214 6,000  Level Chicago Center
Wed 12:46:20 AM 41.8533 -86.7728 121° Southeast 184 212 6,000  Level Chicago Center
Wed 12:47:20 AM 41.8281 -86.7142 120° Southeast 182 209 6,000  Level Chicago Center
Wed 12:48:21 AM 41.7997 -86.6550 123° Southeast 181 208 6,000 149 Level Chicago Center
Wed 12:49:21 AM 41.7719 -86.6019 125° Southeast 177 204 6,300 300 Climbing Chicago Center
Wed 12:50:21 AM 41.7461 -86.5519 125° Southeast 168 193 6,600 298 Climbing Chicago Center
Wed 12:51:22 AM 41.7239 -86.5003 120° Southeast 163 188 6,900 198 Climbing Chicago Center
Wed 12:52:22 AM 41.6989 -86.4469 122° Southeast 166 191 7,000 50 Climbing Chicago Center
Wed 12:53:23 AM 41.6778 -86.3914 117° Southeast 167 192 7,000  Level Chicago Center
Wed 12:54:23 AM 41.6483 -86.3403 128° Southeast 171 197 7,000  Level Chicago Center
Wed 12:55:23 AM 41.6194 -86.2872 126° Southeast 174 200 7,000 50 Level Chicago Center
Wed 12:56:24 AM 41.5961 -86.2331 120° Southeast 172 198 7,100  Climbing Chicago Center
Wed 12:57:24 AM 41.5694 -86.1756 122° Southeast 178 205 7,000 -50 Descending Chicago Center
Wed 12:58:24 AM 41.5414 -86.1239 126° Southeast 175 201 7,000 -99 Level Chicago Center
Wed 12:59:25 AM 41.5081 -86.0617 126° Southeast 172 198 6,800  Descending Chicago Center
Wed 01:00:25 AM 41.4833 -86.0106 123° Southeast 168 193 7,000 150 Climbing Chicago Center
Wed 01:01:25 AM 41.4611 -85.9553 118° Southeast 169 194 7,100 99 Climbing Chicago Center
Wed 01:02:26 AM 41.4358 -85.9008 122° Southeast 172 198 7,200 50 Climbing Chicago Center
Wed 01:03:26 AM 41.4117 -85.8428 119° Southeast 178 205 7,200  Level Chicago Center
Wed 01:04:26 AM 41.3856 -85.7869 122° Southeast 181 208 7,200  Level Chicago Center
Wed 01:05:26 AM 41.3603 -85.7278 120° Southeast 183 211 7,200 -99 Level Chicago Center
Wed 01:06:27 AM 41.3353 -85.6708 120° Southeast 182 209 7,000 -50 Descending Chicago Center
Wed 01:07:27 AM 41.3053 -85.6214 129° Southeast 177 204 7,100 50 Climbing Chicago Center
Wed 01:08:27 AM 41.2786 -85.5650 122° Southeast 178 205 7,100  Level Chicago Center
Wed 01:09:27 AM 41.2508 -85.5089 123° Southeast 180 207 7,100  Level Chicago Center
Wed 01:10:28 AM 41.2233 -85.4536 123° Southeast 181 208 7,100  Level Chicago Center
Wed 01:11:28 AM 41.1947 -85.4003 125° Southeast 180 207 7,100 -50 Level Chicago Center
Wed 01:12:28 AM 41.1653 -85.3489 127° Southeast 178 205 7,000  Descending Chicago Center
Wed 01:13:28 AM 41.1361 -85.3011 129° Southeast 172 198 7,100 99 Climbing Chicago Center
Wed 01:14:29 AM 41.1111 -85.2450 121° Southeast 174 200 7,200  Climbing Chicago Center
Wed 01:15:29 AM 41.0808 -85.1936 128° Southeast 177 204 7,100 -50 Descending Chicago Center
Wed 01:16:29 AM 41.0578 -85.1325 117° Southeast 185 213 7,100 50 Level Chicago Center
Wed 01:17:29 AM 41.0308 -85.0767 123° Southeast 183 211 7,200 -50 Climbing Chicago Center
Wed 01:18:30 AM 41.0033 -85.0197 123° Southeast 182 209 7,000 -149 Descending Chicago Center
Wed 01:19:30 AM 40.9761 -84.9639 123° Southeast 183 211 6,900 -50 Descending Chicago Center
Wed 01:20:30 AM 40.9461 -84.9128 128° Southeast 177 204 6,900 99 Level Chicago Center
Wed 01:21:31 AM 40.9183 -84.8572 123° Southeast 181 208 7,100 99 Climbing Chicago Center
Wed 01:22:31 AM 40.8919 -84.7981 121° Southeast 186 214 7,100 -100 Level Chicago Center
Wed 01:23:31 AM 40.8644 -84.7394 122° Southeast 186 214 6,900 -50 Descending Chicago Center
Wed 01:24:31 AM 40.8406 -84.6811 118° Southeast 184 212 7,000 50 Climbing Chicago Center
Wed 01:25:31 AM 40.8161 -84.6219 119° Southeast 184 212 7,000 50 Level Chicago Center
Wed 01:26:32 AM 40.7903 -84.5669 122° Southeast 180 207 7,100 33 Climbing Chicago Center
Wed 01:28:32 AM 40.7342 -84.4447 121° Southeast 179 206 7,100 -33 Level Indianapolis Center
Wed 01:29:33 AM 40.7069 -84.3844 121° Southeast 186 214 7,000 -50 Descending Indianapolis Center
Wed 01:30:33 AM 40.6811 -84.3269 121° Southeast 184 212 7,000  Level Indianapolis Center
Wed 01:31:33 AM 40.6514 -84.2739 126° Southeast 181 208 7,000  Level Indianapolis Center
Wed 01:32:34 AM 40.6211 -84.2172 125° Southeast 183 211 7,000  Level Indianapolis Center
Wed 01:33:34 AM 40.5942 -84.1583 121° Southeast 185 213 7,000  Level Indianapolis Center
Wed 01:34:34 AM 40.5703 -84.1078 122° Southeast 188 216 7,000  Level Indianapolis Center
Wed 01:35:13 AM 40.5475 -84.0625 123° Southeast 187 215 7,000  Level Indianapolis Center
Wed 01:35:35 AM 40.5414 -84.0508 125° Southeast 188 216 7,000  Level Indianapolis Center
Wed 01:36:14 AM 40.5183 -84.0067 124° Southeast 187 215 7,000  Level Indianapolis Center
Wed 01:36:35 AM 40.5147 -83.9914 107° East 187 215 7,000 -200 Level Indianapolis Center
Wed 01:37:14 AM 40.4894 -83.9450 126° Southeast 190 219 6,800 -300 Descending Indianapolis Center
Wed 01:37:35 AM 40.4856 -83.9325 112° Southeast 190 219 6,700 -492 Descending Indianapolis Center
Wed 01:38:15 AM 40.4606 -83.8839 124° Southeast 208 239 6,300 -393 Descending Indianapolis Center
Wed 01:38:36 AM 40.4542 -83.8694 120° Southeast 200 230 6,300 -295 Level Indianapolis Center
Wed 01:39:16 AM 40.4275 -83.8247 128° Southeast 199 229 6,000 -400 Descending Indianapolis Center
Wed 01:39:36 AM 40.4219 -83.8089 115° Southeast 202 232 5,900 -500 Descending Indianapolis Center
Wed 01:40:16 AM 40.3983 -83.7633 124° Southeast 195 224 5,500 -600 Descending Indianapolis Center
Wed 01:40:36 AM 40.3922 -83.7483 118° Southeast 199 229 5,300 -393 Descending Indianapolis Center
Wed 01:41:17 AM 40.3672 -83.7047 127° Southeast 198 228 5,100 -295 Descending Indianapolis Center
Wed 01:41:37 AM 40.3619 -83.6872 112° Southeast 197 227 5,000 -500 Descending Indianapolis Center
Wed 01:42:17 AM 40.3403 -83.6439 123° Southeast 196 226 4,600 -600 Descending Indianapolis Center
Wed 01:42:37 AM 40.3328 -83.6256 118° Southeast 197 227 4,400 -689 Descending Indianapolis Center
Wed 01:43:18 AM 40.3111 -83.5828 124° Southeast 191 220 3,900 -800 Descending Indianapolis Center
Wed 01:43:37 AM 40.3039 -83.5669 121° Southeast 194 223 3,600 -590 Descending Indianapolis Center
Wed 01:44:19 AM 40.2800 -83.5242 126° Southeast 189 217 3,300 -500 Descending Indianapolis Center
Wed 01:44:37 AM 40.2756 -83.5097 112° Southeast 190 219 3,100 -300 Descending Indianapolis Center
Wed 01:45:19 AM 40.2547 -83.4664 122° Southeast 181 208 3,000 -197 Descending Indianapolis Center
Wed 01:45:38 AM 40.2492 -83.4544 121° Southeast 183 211 2,900  Descending Indianapolis Center
Wed 01:46:20 AM 40.2314 -83.4144 120° Southeast 167 192 3,000 100 Climbing Indianapolis Center
Wed 01:46:38 AM 40.2261 -83.4006 116° Southeast 175 201 3,000  Level Indianapolis Center
Wed 01:47:20 AM 40.2078 -83.3622 122° Southeast 161 185 3,000  Level Indianapolis Center
Wed 01:47:38 AM 40.2044 -83.3489 108° East 166 191 3,000  Level Indianapolis Center
Wed 01:48:21 AM 40.1883 -83.3108 119° Southeast 158 182 3,000 98 Level Indianapolis Center
Wed 01:48:39 AM 40.1817 -83.2986 126° Southeast 162 186 3,100 -197 Climbing Indianapolis Center
Wed 01:49:22 AM 40.1625 -83.2614 124° Southeast 164 189 2,800 -400 Descending Indianapolis Center
Wed 01:49:39 AM 40.1575 -83.2467 114° Southeast 163 188 2,700 -400 Descending Indianapolis Center
Wed 01:50:22 AM 40.1367 -83.2144 130° Southeast 158 182 2,400 -400 Descending Indianapolis Center
Wed 01:50:39 AM 40.1317 -83.1997 114° Southeast 161 185 2,300 -295 Descending Indianapolis Center
Wed 01:51:23 AM 40.1106 -83.1678 131° Southeast 149 171 2,100 -197 Descending Indianapolis Center
Wed 01:51:40 AM 40.1061 -83.1572 119° Southeast 154 177 2,100 -400 Level Indianapolis Center
Wed 01:52:23 AM 40.0858 -83.1294 134° Southeast 137 158 1,700 -400 Descending Indianapolis Center
Wed 01:52:40 AM 40.0814 -83.1208 124° Southeast 143 165 1,700 -390 Level Indianapolis Center
Wed 01:53:40 AM 40.0761 -83.0819 100° East 131 151 1,200 -500 Descending Indianapolis Center
Wed 01:55:00 AM 40.0798 -83.0732 123° Southeast  Level Estimated

Login

Don't have an account? Register now (free) for customized features, flight alerts, and more!